Terminal Aerodrome Forecast
Issued by NWS Charleston, WV

Current Version | Previous Version | Graphics & Text | Print | Product List | Glossary On
Versions: 1 2 3 4 5 6 7 8 9 10 11 12 13 14 15 16 17 18 19 20 21 22 23 24 25 26 27 28 29
272
FTUS41 KRLX 241755
TAFCRW
TAF
KCRW 241755Z 2418/2518 18003KT 3SM RA BR SCT025 BKN035
      TEMPO 2418/2422 3/4SM +SHRA BR OVC025
     FM250200 17006KT 6SM BR BKN200
     FM250600 20009G15KT 5SM BR BKN090
     FM250800 20009G18KT 5SM +SHRA OVC050
     FM251300 20009KT 3SM +SHRA OVC040
     FM251500 21009G16KT 5SM -SHRA BR OVC025
     FM251600 23009G17KT P6SM OVC040=

USA.gov is the U.S. government's official web portal to all federal, state and local government web resources and services.